Terminal Aerodrome Forecast
Issued by NWS Lake Charles, LA

Home | Current Version | Previous Version | Text Only | Print | Product List | Glossary On
Versions: 1 2 3 4 5 6 7 8 9 10 11 12 13 14 15 16
000
FTUS44 KLCH 210520
TAFAEX
TAF
KAEX 210520Z 2106/2206 VRB03KT P6SM FEW250
     FM210900 00000KT 4SM BR SCT012
      TEMPO 2111/2113 1SM BR BKN007
     FM211500 15004KT P6SM SCT025=

USA.gov is the U.S. government's official web portal to all federal, state and local government web resources and services.